sensor_id;sensor_type;location;lat;lon;timestamp;pressure;altitude;pressure_sealevel;temperature;humidity
48622;BME280;34421;48.944;9.460;2023-05-23T00:01:05;98293.31;;;16.97;74.27
48622;BME280;34421;48.944;9.460;2023-05-23T00:03:31;98289.25;;;16.94;75.37
48622;BME280;34421;48.944;9.460;2023-05-23T00:05:57;98279.81;;;16.92;74.95
48622;BME280;34421;48.944;9.460;2023-05-23T00:08:23;98289.19;;;16.84;74.32
48622;BME280;34421;48.944;9.460;2023-05-23T00:10:49;98293.44;;;16.80;74.87
48622;BME280;34421;48.944;9.460;2023-05-23T00:13:14;98295.56;;;16.78;74.69
48622;BME280;34421;48.944;9.460;2023-05-23T00:15:43;98293.44;;;16.80;75.41
48622;BME280;34421;48.944;9.460;2023-05-23T00:18:09;98292.63;;;16.79;75.70
48622;BME280;34421;48.944;9.460;2023-05-23T00:20:39;98284.84;;;16.83;75.66
48622;BME280;34421;48.944;9.460;2023-05-23T00:23:06;98289.19;;;16.84;75.46
48622;BME280;34421;48.944;9.460;2023-05-23T00:25:33;98295.56;;;16.78;75.68
48622;BME280;34421;48.944;9.460;2023-05-23T00:27:59;98297.09;;;16.74;76.67
48622;BME280;34421;48.944;9.460;2023-05-23T00:30:26;98302.44;;;16.69;78.20
48622;BME280;34421;48.944;9.460;2023-05-23T00:32:52;98301.03;;;16.61;77.88
48622;BME280;34421;48.944;9.460;2023-05-23T00:35:19;98303.13;;;16.59;77.53
48622;BME280;34421;48.944;9.460;2023-05-23T00:37:45;98302.28;;;16.53;77.41
48622;BME280;34421;48.944;9.460;2023-05-23T00:40:11;98297.97;;;16.52;77.43
48622;BME280;34421;48.944;9.460;2023-05-23T00:42:37;98301.72;;;16.51;77.20
48622;BME280;34421;48.944;9.460;2023-05-23T00:45:02;98300.09;;;16.50;77.46
48622;BME280;34421;48.944;9.460;2023-05-23T00:47:28;98299.84;;;16.52;77.87
48622;BME280;34421;48.944;9.460;2023-05-23T00:49:53;98306.28;;;16.51;77.38
48622;BME280;34421;48.944;9.460;2023-05-23T00:52:19;98291.78;;;16.52;77.29
48622;BME280;34421;48.944;9.460;2023-05-23T00:54:44;98306.53;;;16.49;77.40
48622;BME280;34421;48.944;9.460;2023-05-23T00:57:10;98298.41;;;16.44;76.88
48622;BME280;34421;48.944;9.460;2023-05-23T00:59:36;98305.66;;;16.44;77.21
48622;BME280;34421;48.944;9.460;2023-05-23T01:02:02;98310.25;;;16.43;76.81
48622;BME280;34421;48.944;9.460;2023-05-23T01:04:28;98310.25;;;16.43;76.51
48622;BME280;34421;48.944;9.460;2023-05-23T01:06:54;98313.78;;;16.49;76.58
48622;BME280;34421;48.944;9.460;2023-05-23T01:09:20;98317.66;;;16.58;76.67
48622;BME280;34421;48.944;9.460;2023-05-23T01:14:29;98322.38;;;16.73;75.43
48622;BME280;34421;48.944;9.460;2023-05-23T01:17:13;98323.00;;;16.80;75.59
48622;BME280;34421;48.944;9.460;2023-05-23T01:22:25;98319.06;;;16.88;75.60
48622;BME280;34421;48.944;9.460;2023-05-23T01:24:56;98323.91;;;16.91;75.33
48622;BME280;34421;48.944;9.460;2023-05-23T01:27:56;98328.78;;;16.94;75.62
48622;BME280;34421;48.944;9.460;2023-05-23T01:30:23;98327.47;;;16.96;75.09
48622;BME280;34421;48.944;9.460;2023-05-23T01:32:50;98323.19;;;17.00;75.84
48622;BME280;34421;48.944;9.460;2023-05-23T01:35:23;98317.88;;;17.05;75.64
48622;BME280;34421;48.944;9.460;2023-05-23T01:37:48;98322.22;;;17.12;75.07
48622;BME280;34421;48.944;9.460;2023-05-23T01:40:14;98320.63;;;17.16;75.85
48622;BME280;34421;48.944;9.460;2023-05-23T01:42:39;98322.84;;;17.24;75.68
48622;BME280;34421;48.944;9.460;2023-05-23T01:45:05;98317.53;;;17.29;75.95
48622;BME280;34421;48.944;9.460;2023-05-23T01:47:31;98327.50;;;17.34;75.97
48622;BME280;34421;48.944;9.460;2023-05-23T01:49:57;98327.25;;;17.35;76.28
48622;BME280;34421;48.944;9.460;2023-05-23T01:52:23;98327.84;;;17.42;76.11
48622;BME280;34421;48.944;9.460;2023-05-23T01:54:50;98326.28;;;17.46;76.53
48622;BME280;34421;48.944;9.460;2023-05-23T01:57:18;98323.88;;;17.50;76.45
48622;BME280;34421;48.944;9.460;2023-05-23T01:59:44;98323.63;;;17.57;76.50
48622;BME280;34421;48.944;9.460;2023-05-23T02:02:10;98321.22;;;17.60;76.55
48622;BME280;34421;48.944;9.460;2023-05-23T02:04:35;98315.59;;;17.62;76.29
48622;BME280;34421;48.944;9.460;2023-05-23T02:07:00;98329.88;;;17.62;76.43
48622;BME280;34421;48.944;9.460;2023-05-23T02:09:26;98325.84;;;17.65;76.49
48622;BME280;34421;48.944;9.460;2023-05-23T02:11:51;98331.78;;;17.67;76.50
48622;BME280;34421;48.944;9.460;2023-05-23T02:14:17;98325.25;;;17.58;76.67
48622;BME280;34421;48.944;9.460;2023-05-23T02:16:42;98321.72;;;17.52;77.17
48622;BME280;34421;48.944;9.460;2023-05-23T02:19:08;98333.00;;;17.49;77.09
48622;BME280;34421;48.944;9.460;2023-05-23T02:21:34;98329.53;;;17.53;77.81
48622;BME280;34421;48.944;9.460;2023-05-23T02:23:59;98327.41;;;17.56;77.61
48622;BME280;34421;48.944;9.460;2023-05-23T02:26:25;98337.13;;;17.62;78.08
48622;BME280;34421;48.944;9.460;2023-05-23T02:28:51;98337.97;;;17.67;77.42
48622;BME280;34421;48.944;9.460;2023-05-23T02:31:17;98340.69;;;17.67;77.51
48622;BME280;34421;48.944;9.460;2023-05-23T02:33:42;98337.72;;;17.69;77.84
48622;BME280;34421;48.944;9.460;2023-05-23T02:36:07;98346.34;;;17.71;77.82
48622;BME280;34421;48.944;9.460;2023-05-23T02:38:33;98344.50;;;17.76;78.23
48622;BME280;34421;48.944;9.460;2023-05-23T02:40:58;98350.19;;;17.80;77.58
48622;BME280;34421;48.944;9.460;2023-05-23T02:43:24;98340.53;;;17.84;77.69
48622;BME280;34421;48.944;9.460;2023-05-23T02:45:50;98337.06;;;17.89;77.88
48622;BME280;34421;48.944;9.460;2023-05-23T02:48:15;98335.44;;;17.93;78.31
48622;BME280;34421;48.944;9.460;2023-05-23T02:50:41;98341.13;;;17.96;78.12
48622;BME280;34421;48.944;9.460;2023-05-23T02:53:06;98344.66;;;18.02;77.92
48622;BME280;34421;48.944;9.460;2023-05-23T02:55:31;98347.66;;;18.06;78.03
48622;BME280;34421;48.944;9.460;2023-05-23T02:57:57;98348.75;;;18.10;77.86
48622;BME280;34421;48.944;9.460;2023-05-23T03:00:26;98346.88;;;18.10;78.30
48622;BME280;34421;48.944;9.460;2023-05-23T03:02:51;98345.53;;;18.13;78.06
48622;BME280;34421;48.944;9.460;2023-05-23T03:05:17;98343.91;;;18.17;78.06
48622;BME280;34421;48.944;9.460;2023-05-23T03:07:42;98343.91;;;18.17;78.00
48622;BME280;34421;48.944;9.460;2023-05-23T03:10:08;98353.94;;;18.21;78.09
48622;BME280;34421;48.944;9.460;2023-05-23T03:12:33;98351.50;;;18.25;78.49
48622;BME280;34421;48.944;9.460;2023-05-23T03:14:59;98356.66;;;18.27;78.30
48622;BME280;34421;48.944;9.460;2023-05-23T03:17:24;98354.47;;;18.29;78.34
48622;BME280;34421;48.944;9.460;2023-05-23T03:19:50;98349.66;;;18.31;78.46
48622;BME280;34421;48.944;9.460;2023-05-23T03:22:15;98348.31;;;18.33;78.45
48622;BME280;34421;48.944;9.460;2023-05-23T03:24:41;98363.41;;;18.34;78.09
48622;BME280;34421;48.944;9.460;2023-05-23T03:27:07;98366.09;;;18.34;78.34
48622;BME280;34421;48.944;9.460;2023-05-23T03:29:32;98357.22;;;18.34;78.37
48622;BME280;34421;48.944;9.460;2023-05-23T03:31:57;98363.13;;;18.31;78.07
48622;BME280;34421;48.944;9.460;2023-05-23T03:34:22;98361.78;;;18.33;78.14
48622;BME280;34421;48.944;9.460;2023-05-23T03:36:50;98361.25;;;18.36;78.01
48622;BME280;34421;48.944;9.460;2023-05-23T03:39:15;98365.03;;;18.40;78.15
48622;BME280;34421;48.944;9.460;2023-05-23T03:41:41;98364.50;;;18.43;77.80
48622;BME280;34421;48.944;9.460;2023-05-23T03:44:06;98365.06;;;18.45;78.23
48622;BME280;34421;48.944;9.460;2023-05-23T03:46:32;98363.19;;;18.46;77.84
48622;BME280;34421;48.944;9.460;2023-05-23T03:48:57;98370.19;;;18.47;77.68
48622;BME280;34421;48.944;9.460;2023-05-23T03:51:22;98362.94;;;18.48;78.18
48622;BME280;34421;48.944;9.460;2023-05-23T03:53:48;98358.59;;;18.47;78.03
48622;BME280;34421;48.944;9.460;2023-05-23T03:56:13;98362.09;;;18.47;78.04
48622;BME280;34421;48.944;9.460;2023-05-23T03:58:38;98361.03;;;18.48;77.99
48622;BME280;34421;48.944;9.460;2023-05-23T04:01:04;98365.94;;;18.56;77.75
48622;BME280;34421;48.944;9.460;2023-05-23T04:03:30;98366.75;;;18.57;77.91
48622;BME280;34421;48.944;9.460;2023-05-23T04:05:59;98369.44;;;18.57;77.75
48622;BME280;34421;48.944;9.460;2023-05-23T04:08:25;98368.63;;;18.56;77.90
48622;BME280;34421;48.944;9.460;2023-05-23T04:10:50;98365.66;;;18.58;78.29
48622;BME280;34421;48.944;9.460;2023-05-23T04:13:16;98374.00;;;18.61;77.91
48622;BME280;34421;48.944;9.460;2023-05-23T04:15:41;98378.34;;;18.62;77.87
48622;BME280;34421;48.944;9.460;2023-05-23T04:18:07;98378.34;;;18.62;77.91
48622;BME280;34421;48.944;9.460;2023-05-23T04:20:33;98379.44;;;18.66;78.17
48622;BME280;34421;48.944;9.460;2023-05-23T04:22:58;98381.31;;;18.66;77.87
48622;BME280;34421;48.944;9.460;2023-05-23T04:25:24;98389.97;;;18.68;78.23
48622;BME280;34421;48.944;9.460;2023-05-23T04:27:50;98385.91;;;18.71;77.99
48622;BME280;34421;48.944;9.460;2023-05-23T04:30:16;98388.59;;;18.71;77.97
48622;BME280;34421;48.944;9.460;2023-05-23T04:32:42;98380.50;;;18.71;77.78
48622;BME280;34421;48.944;9.460;2023-05-23T04:35:08;98384.28;;;18.70;78.30
48622;BME280;34421;48.944;9.460;2023-05-23T04:37:33;98378.69;;;18.76;78.11
48622;BME280;34421;48.944;9.460;2023-05-23T04:39:59;98379.78;;;18.90;78.46
48622;BME280;34421;48.944;9.460;2023-05-23T04:42:25;98388.72;;;19.06;78.03
48622;BME280;34421;48.944;9.460;2023-05-23T04:44:51;98387.38;;;19.24;76.86
48622;BME280;34421;48.944;9.460;2023-05-23T04:47:22;98392.81;;;19.40;76.46
48622;BME280;34421;48.944;9.460;2023-05-23T04:49:49;98388.47;;;19.54;76.08
48622;BME280;34421;48.944;9.460;2023-05-23T04:52:14;98387.44;;;19.75;75.17
48622;BME280;34421;48.944;9.460;2023-05-23T04:54:43;98388.47;;;19.90;74.47
48622;BME280;34421;48.944;9.460;2023-05-23T04:57:10;98391.97;;;20.00;73.67
48622;BME280;34421;48.944;9.460;2023-05-23T04:59:36;98379.78;;;20.13;72.60
48622;BME280;34421;48.944;9.460;2023-05-23T05:02:02;98391.63;;;20.27;71.72
48622;BME280;34421;48.944;9.460;2023-05-23T05:04:27;98394.31;;;20.38;71.56
48622;BME280;34421;48.944;9.460;2023-05-23T05:06:53;98393.47;;;20.47;71.45
48622;BME280;34421;48.944;9.460;2023-05-23T05:09:18;98407.00;;;20.42;71.31
48622;BME280;34421;48.944;9.460;2023-05-23T05:11:43;98398.94;;;20.32;71.63
48622;BME280;34421;48.944;9.460;2023-05-23T05:14:09;98402.44;;;20.27;71.85
48622;BME280;34421;48.944;9.460;2023-05-23T05:16:34;98402.19;;;20.24;72.06
48622;BME280;34421;48.944;9.460;2023-05-23T05:19:00;98412.72;;;20.25;72.10
48622;BME280;34421;48.944;9.460;2023-05-23T05:21:25;98409.47;;;20.34;72.15
48622;BME280;34421;48.944;9.460;2023-05-23T05:23:51;98401.31;;;20.44;70.86
48622;BME280;34421;48.944;9.460;2023-05-23T05:26:16;98400.22;;;20.55;70.05
48622;BME280;34421;48.944;9.460;2023-05-23T05:28:42;98404.25;;;20.63;69.88
48622;BME280;34421;48.944;9.460;2023-05-23T05:31:07;98399.09;;;20.66;69.90
48622;BME280;34421;48.944;9.460;2023-05-23T05:33:34;98410.16;;;20.70;69.77
48622;BME280;34421;48.944;9.460;2023-05-23T05:36:03;98410.69;;;20.72;68.86
48622;BME280;34421;48.944;9.460;2023-05-23T05:38:28;98408.78;;;20.73;69.41
48622;BME280;34421;48.944;9.460;2023-05-23T05:40:54;98411.22;;;20.79;69.45
48622;BME280;34421;48.944;9.460;2023-05-23T05:43:19;98400.88;;;20.91;68.49
48622;BME280;34421;48.944;9.460;2023-05-23T05:45:45;98413.19;;;21.13;67.18
48622;BME280;34421;48.944;9.460;2023-05-23T05:48:10;98405.19;;;21.37;67.16
48622;BME280;34421;48.944;9.460;2023-05-23T05:50:36;98405.63;;;21.49;66.35
48622;BME280;34421;48.944;9.460;2023-05-23T05:53:01;98411.59;;;21.51;66.53
48622;BME280;34421;48.944;9.460;2023-05-23T05:55:27;98414.56;;;21.50;67.05
48622;BME280;34421;48.944;9.460;2023-05-23T05:57:53;98407.56;;;21.44;66.17
48622;BME280;34421;48.944;9.460;2023-05-23T06:00:18;98419.84;;;21.31;66.65
48622;BME280;34421;48.944;9.460;2023-05-23T06:02:45;98419.31;;;21.24;66.87
48622;BME280;34421;48.944;9.460;2023-05-23T06:05:12;98409.13;;;21.10;67.39
48622;BME280;34421;48.944;9.460;2023-05-23T06:07:38;98412.09;;;21.09;67.49
48622;BME280;34421;48.944;9.460;2023-05-23T06:10:04;98417.88;;;20.97;67.09
48622;BME280;34421;48.944;9.460;2023-05-23T06:12:30;98417.91;;;20.87;67.75
48622;BME280;34421;48.944;9.460;2023-05-23T06:14:55;98421.75;;;20.81;68.65
48622;BME280;34421;48.944;9.460;2023-05-23T06:17:21;98423.91;;;20.79;68.26
48622;BME280;34421;48.944;9.460;2023-05-23T06:19:46;98421.19;;;20.84;68.44
48622;BME280;34421;48.944;9.460;2023-05-23T06:22:11;98415.75;;;20.94;68.18
48622;BME280;34421;48.944;9.460;2023-05-23T06:24:37;98421.19;;;21.28;67.82
48622;BME280;34421;48.944;9.460;2023-05-23T06:27:02;98415.75;;;21.73;66.40
48622;BME280;34421;48.944;9.460;2023-05-23T06:29:28;98422.78;;;22.56;64.50
48622;BME280;34421;48.944;9.460;2023-05-23T06:31:55;98419.75;;;22.82;63.67
48622;BME280;34421;48.944;9.460;2023-05-23T06:34:20;98435.97;;;22.63;63.28
48622;BME280;34421;48.944;9.460;2023-05-23T06:36:45;98434.03;;;22.44;63.66
48622;BME280;34421;48.944;9.460;2023-05-23T06:39:12;98441.13;;;22.40;63.76
48622;BME280;34421;48.944;9.460;2023-05-23T06:41:38;98443.38;;;22.33;63.05
48622;BME280;34421;48.944;9.460;2023-05-23T06:44:03;98438.34;;;22.21;63.37
48622;BME280;34421;48.944;9.460;2023-05-23T06:46:29;98438.38;;;22.16;63.34
48622;BME280;34421;48.944;9.460;2023-05-23T06:48:55;98450.13;;;22.06;62.89
48622;BME280;34421;48.944;9.460;2023-05-23T06:51:20;98443.47;;;21.94;63.17
48622;BME280;34421;48.944;9.460;2023-05-23T06:53:45;98446.09;;;21.75;63.53
48622;BME280;34421;48.944;9.460;2023-05-23T06:56:11;98464.66;;;21.52;64.81
48622;BME280;34421;48.944;9.460;2023-05-23T06:58:36;98448.44;;;21.47;65.82
48622;BME280;34421;48.944;9.460;2023-05-23T07:01:01;98461.41;;;21.50;65.09
48622;BME280;34421;48.944;9.460;2023-05-23T07:03:26;98450.59;;;21.50;64.46
48622;BME280;34421;48.944;9.460;2023-05-23T07:05:52;98455.53;;;21.43;64.77
48622;BME280;34421;48.944;9.460;2023-05-23T07:08:17;98462.53;;;21.44;64.17
48622;BME280;34421;48.944;9.460;2023-05-23T07:10:42;98462.53;;;21.44;64.92
48622;BME280;34421;48.944;9.460;2023-05-23T07:13:08;98464.69;;;21.47;64.56
48622;BME280;34421;48.944;9.460;2023-05-23T07:15:33;98461.16;;;21.52;64.15
48622;BME280;34421;48.944;9.460;2023-05-23T07:17:58;98471.41;;;21.60;63.69
48622;BME280;34421;48.944;9.460;2023-05-23T07:20:24;98465.88;;;21.70;63.90
48622;BME280;34421;48.944;9.460;2023-05-23T07:22:49;98474.53;;;21.72;63.01
48622;BME280;34421;48.944;9.460;2023-05-23T07:25:16;98473.81;;;21.61;63.53
48622;BME280;34421;48.944;9.460;2023-05-23T07:27:41;98466.91;;;21.40;64.02
48622;BME280;34421;48.944;9.460;2023-05-23T07:30:07;98471.31;;;21.21;65.49
48622;BME280;34421;48.944;9.460;2023-05-23T07:32:34;98477.06;;;21.09;65.13
48622;BME280;34421;48.944;9.460;2023-05-23T07:34:59;98473.28;;;21.15;65.65
48622;BME280;34421;48.944;9.460;2023-05-23T07:37:25;98469.38;;;21.31;64.87
48622;BME280;34421;48.944;9.460;2023-05-23T07:39:52;98471.69;;;21.53;64.45
48622;BME280;34421;48.944;9.460;2023-05-23T07:42:17;98472.91;;;21.71;64.29
48622;BME280;34421;48.944;9.460;2023-05-23T07:44:42;98471.38;;;21.94;63.62
48622;BME280;34421;48.944;9.460;2023-05-23T07:47:07;98463.63;;;22.17;62.92
48622;BME280;34421;48.944;9.460;2023-05-23T07:49:33;98462.94;;;22.54;61.70
48622;BME280;34421;48.944;9.460;2023-05-23T07:51:59;98470.91;;;22.93;60.32
48622;BME280;34421;48.944;9.460;2023-05-23T07:54:25;98471.69;;;23.18;59.00
48622;BME280;34421;48.944;9.460;2023-05-23T07:56:52;98460.19;;;23.26;58.76
48622;BME280;34421;48.944;9.460;2023-05-23T07:59:17;98478.53;;;23.53;57.84
48622;BME280;34421;48.944;9.460;2023-05-23T08:01:42;98474.03;;;23.81;57.19
48622;BME280;34421;48.944;9.460;2023-05-23T08:04:08;98486.41;;;24.06;56.71
48622;BME280;34421;48.944;9.460;2023-05-23T08:06:34;98485.31;;;24.21;56.27
48622;BME280;34421;48.944;9.460;2023-05-23T08:09:00;98475.75;;;24.38;55.96
48622;BME280;34421;48.944;9.460;2023-05-23T08:11:26;98484.44;;;24.40;55.20
48622;BME280;34421;48.944;9.460;2023-05-23T08:13:53;98487.13;;;24.26;56.42
48622;BME280;34421;48.944;9.460;2023-05-23T08:16:18;98484.44;;;24.40;54.19
48622;BME280;34421;48.944;9.460;2023-05-23T08:18:43;98483.66;;;24.39;53.55
48622;BME280;34421;48.944;9.460;2023-05-23T08:21:09;98497.13;;;24.30;52.53
48622;BME280;34421;48.944;9.460;2023-05-23T08:23:34;98499.69;;;24.08;53.10
48622;BME280;34421;48.944;9.460;2023-05-23T08:25:59;98502.22;;;23.66;53.41
48622;BME280;34421;48.944;9.460;2023-05-23T08:28:25;98502.59;;;23.22;57.32
48622;BME280;34421;48.944;9.460;2023-05-23T08:30:50;98496.47;;;22.87;58.50
48622;BME280;34421;48.944;9.460;2023-05-23T08:33:16;98505.03;;;22.51;58.67
48622;BME280;34421;48.944;9.460;2023-05-23T08:35:41;98510.06;;;22.05;58.06
48622;BME280;34421;48.944;9.460;2023-05-23T08:38:06;98514.53;;;21.51;58.67
48622;BME280;34421;48.944;9.460;2023-05-23T08:40:33;98516.34;;;21.06;59.37
48622;BME280;34421;48.944;9.460;2023-05-23T08:43:00;98512.06;;;20.95;60.23
48622;BME280;34421;48.944;9.460;2023-05-23T08:45:26;98508.25;;;21.06;60.43
48622;BME280;34421;48.944;9.460;2023-05-23T08:47:54;98516.25;;;21.27;59.61
48622;BME280;34421;48.944;9.460;2023-05-23T08:50:20;98512.47;;;21.28;59.95
48622;BME280;34421;48.944;9.460;2023-05-23T08:52:58;98517.25;;;21.46;59.74
48622;BME280;34421;48.944;9.460;2023-05-23T08:55:24;98518.72;;;21.68;58.91
48622;BME280;34421;48.944;9.460;2023-05-23T08:57:54;98522.84;;;21.99;58.25
48622;BME280;34421;48.944;9.460;2023-05-23T09:00:20;98515.25;;;22.60;56.48
48622;BME280;34421;48.944;9.460;2023-05-23T09:02:47;98518.69;;;23.75;54.31
48622;BME280;34421;48.944;9.460;2023-05-23T09:05:13;98513.44;;;25.91;48.93
48622;BME280;34421;48.944;9.460;2023-05-23T09:07:39;98517.56;;;26.11;47.57
48622;BME280;34421;48.944;9.460;2023-05-23T09:10:06;98516.38;;;25.58;48.23
48622;BME280;34421;48.944;9.460;2023-05-23T09:12:33;98528.53;;;25.24;47.94
48622;BME280;34421;48.944;9.460;2023-05-23T09:15:05;98532.47;;;25.32;47.26
48622;BME280;34421;48.944;9.460;2023-05-23T09:17:31;98522.72;;;25.90;46.80
48622;BME280;34421;48.944;9.460;2023-05-23T09:19:58;98530.81;;;25.95;47.62
48622;BME280;34421;48.944;9.460;2023-05-23T09:22:24;98527.75;;;26.19;45.78
48622;BME280;34421;48.944;9.460;2023-05-23T09:24:54;98524.31;;;26.67;44.55
48622;BME280;34421;48.944;9.460;2023-05-23T09:27:20;98522.75;;;26.44;46.87
48622;BME280;34421;48.944;9.460;2023-05-23T09:29:45;98531.66;;;26.04;46.34
48622;BME280;34421;48.944;9.460;2023-05-23T09:32:17;98542.53;;;25.45;47.27
48622;BME280;34421;48.944;9.460;2023-05-23T09:34:56;98532.69;;;25.08;48.82
48622;BME280;34421;48.944;9.460;2023-05-23T09:37:38;98536.06;;;24.45;50.03
48622;BME280;34421;48.944;9.460;2023-05-23T09:40:14;98534.53;;;24.06;51.52
48622;BME280;34421;48.944;9.460;2023-05-23T09:42:47;98538.34;;;23.67;52.39
48622;BME280;34421;48.944;9.460;2023-05-23T09:45:13;98543.78;;;23.67;52.36
48622;BME280;34421;48.944;9.460;2023-05-23T09:47:48;98545.53;;;24.15;50.52
48622;BME280;34421;48.944;9.460;2023-05-23T09:50:14;98539.25;;;25.85;47.00
48622;BME280;34421;48.944;9.460;2023-05-23T09:52:40;98533.06;;;28.87;40.61
48622;BME280;34421;48.944;9.460;2023-05-23T09:55:05;98531.50;;;30.53;36.46
48622;BME280;34421;48.944;9.460;2023-05-23T09:57:34;98536.50;;;32.58;34.03
48622;BME280;34421;48.944;9.460;2023-05-23T10:00:02;98537.38;;;33.80;31.80
48622;BME280;34421;48.944;9.460;2023-05-23T10:05:32;98528.75;;;30.53;35.12
48622;BME280;34421;48.944;9.460;2023-05-23T10:08:07;98530.28;;;32.45;33.09
48622;BME280;34421;48.944;9.460;2023-05-23T10:13:20;98525.53;;;34.61;29.67
48622;BME280;34421;48.944;9.460;2023-05-23T10:15:48;98527.47;;;35.94;27.88
48622;BME280;34421;48.944;9.460;2023-05-23T10:18:17;98535.13;;;37.37;25.97
48622;BME280;34421;48.944;9.460;2023-05-23T10:20:48;98531.75;;;37.69;24.77
48622;BME280;34421;48.944;9.460;2023-05-23T10:23:14;98534.34;;;38.28;24.61
48622;BME280;34421;48.944;9.460;2023-05-23T10:25:41;98525.25;;;39.13;23.34
48622;BME280;34421;48.944;9.460;2023-05-23T10:28:08;98529.22;;;39.37;22.97
48622;BME280;34421;48.944;9.460;2023-05-23T10:30:34;98529.22;;;36.46;25.88
48622;BME280;34421;48.944;9.460;2023-05-23T10:32:59;98539.97;;;34.32;28.65
48622;BME280;34421;48.944;9.460;2023-05-23T10:35:41;98547.03;;;33.71;28.62
48622;BME280;34421;48.944;9.460;2023-05-23T10:41:07;98550.22;;;31.46;31.68
48622;BME280;34421;48.944;9.460;2023-05-23T10:43:41;98547.72;;;29.50;35.25
48622;BME280;34421;48.944;9.460;2023-05-23T10:46:11;98548.38;;;27.62;38.90
48622;BME280;34421;48.944;9.460;2023-05-23T10:48:43;98557.06;;;27.56;37.02
48622;BME280;34421;48.944;9.460;2023-05-23T10:51:10;98557.03;;;28.60;34.96
48622;BME280;34421;48.944;9.460;2023-05-23T10:53:38;98558.50;;;28.49;35.02
48622;BME280;34421;48.944;9.460;2023-05-23T10:56:08;98557.09;;;28.08;36.38
48622;BME280;34421;48.944;9.460;2023-05-23T10:58:40;98557.69;;;28.48;35.33
48622;BME280;34421;48.944;9.460;2023-05-23T11:01:07;98552.13;;;29.21;34.37
48622;BME280;34421;48.944;9.460;2023-05-23T11:06:40;98555.56;;;29.60;33.44
48622;BME280;34421;48.944;9.460;2023-05-23T11:09:14;98562.50;;;29.07;33.63
48622;BME280;34421;48.944;9.460;2023-05-23T11:12:02;98570.44;;;29.29;33.21
48622;BME280;34421;48.944;9.460;2023-05-23T11:19:36;98577.53;;;29.60;32.49
48622;BME280;34421;48.944;9.460;2023-05-23T11:22:02;98576.28;;;29.28;32.47
48622;BME280;34421;48.944;9.460;2023-05-23T11:24:49;98572.25;;;29.25;33.68
48622;BME280;34421;48.944;9.460;2023-05-23T11:27:16;98577.88;;;29.29;33.27
48622;BME280;34421;48.944;9.460;2023-05-23T11:29:54;98576.44;;;29.23;33.66
48622;BME280;34421;48.944;9.460;2023-05-23T11:32:20;98572.16;;;29.13;33.11
48622;BME280;34421;48.944;9.460;2023-05-23T11:34:45;98579.47;;;28.45;33.92
48622;BME280;34421;48.944;9.460;2023-05-23T11:37:11;98577.38;;;27.98;34.67
48622;BME280;34421;48.944;9.460;2023-05-23T11:39:37;98572.88;;;28.11;35.46
48622;BME280;34421;48.944;9.460;2023-05-23T11:42:02;98568.03;;;28.08;35.21
48622;BME280;34421;48.944;9.460;2023-05-23T11:44:29;98565.78;;;27.84;35.43
48622;BME280;34421;48.944;9.460;2023-05-23T11:47:02;98563.88;;;27.84;35.82
48622;BME280;34421;48.944;9.460;2023-05-23T11:49:33;98562.09;;;28.06;34.86
48622;BME280;34421;48.944;9.460;2023-05-23T11:52:00;98556.78;;;28.18;34.89
48622;BME280;34421;48.944;9.460;2023-05-23T11:54:27;98564.97;;;28.18;35.10
48622;BME280;34421;48.944;9.460;2023-05-23T11:56:54;98558.88;;;28.12;34.93
48622;BME280;34421;48.944;9.460;2023-05-23T11:59:24;98563.16;;;28.39;34.34
48622;BME280;34421;48.944;9.460;2023-05-23T12:01:53;98563.03;;;28.45;34.09
48622;BME280;34421;48.944;9.460;2023-05-23T12:04:19;98560.59;;;28.34;34.80
48622;BME280;34421;48.944;9.460;2023-05-23T12:06:48;98558.66;;;28.44;34.98
48622;BME280;34421;48.944;9.460;2023-05-23T12:09:15;98558.03;;;28.47;34.12
48622;BME280;34421;48.944;9.460;2023-05-23T12:11:41;98554.16;;;28.39;34.45
48622;BME280;34421;48.944;9.460;2023-05-23T12:14:08;98557.41;;;28.50;34.68
48622;BME280;34421;48.944;9.460;2023-05-23T12:16:38;98555.88;;;28.61;34.95
48622;BME280;34421;48.944;9.460;2023-05-23T12:19:04;98541.91;;;28.92;34.50
48622;BME280;34421;48.944;9.460;2023-05-23T12:21:45;98553.38;;;29.24;34.30
48622;BME280;34421;48.944;9.460;2023-05-23T12:24:13;98550.69;;;29.15;33.57
48622;BME280;34421;48.944;9.460;2023-05-23T12:26:49;98555.28;;;28.94;34.51
48622;BME280;34421;48.944;9.460;2023-05-23T12:29:20;98552.97;;;28.66;34.88
48622;BME280;34421;48.944;9.460;2023-05-23T12:31:49;98551.44;;;28.22;35.95
48622;BME280;34421;48.944;9.460;2023-05-23T12:34:16;98544.41;;;28.03;36.14
48622;BME280;34421;48.944;9.460;2023-05-23T12:36:41;98547.63;;;27.88;36.69
48622;BME280;34421;48.944;9.460;2023-05-23T12:39:07;98540.97;;;27.63;36.65
48622;BME280;34421;48.944;9.460;2023-05-23T12:41:33;98548.34;;;27.19;37.51
48622;BME280;34421;48.944;9.460;2023-05-23T12:43:59;98555.84;;;26.73;37.62
48622;BME280;34421;48.944;9.460;2023-05-23T12:46:25;98545.84;;;26.37;38.70
48622;BME280;34421;48.944;9.460;2023-05-23T12:48:52;98550.81;;;25.90;39.07
48622;BME280;34421;48.944;9.460;2023-05-23T12:51:18;98554.09;;;25.65;40.03
48622;BME280;34421;48.944;9.460;2023-05-23T12:53:44;98558.25;;;25.62;40.01
48622;BME280;34421;48.944;9.460;2023-05-23T12:56:10;98562.03;;;25.75;39.54
48622;BME280;34421;48.944;9.460;2023-05-23T12:58:35;98551.50;;;25.96;39.13
48622;BME280;34421;48.944;9.460;2023-05-23T13:01:01;98546.78;;;26.33;38.89
48622;BME280;34421;48.944;9.460;2023-05-23T13:03:28;98539.69;;;26.32;39.37
48622;BME280;34421;48.944;9.460;2023-05-23T13:05:56;98547.16;;;25.95;39.81
48622;BME280;34421;48.944;9.460;2023-05-23T13:08:22;98533.09;;;25.65;40.32
48622;BME280;34421;48.944;9.460;2023-05-23T13:10:48;98538.63;;;25.38;40.03
48622;BME280;34421;48.944;9.460;2023-05-23T13:13:13;98533.56;;;25.31;40.43
48622;BME280;34421;48.944;9.460;2023-05-23T13:15:39;98537.13;;;25.32;40.55
48622;BME280;34421;48.944;9.460;2023-05-23T13:18:04;98541.34;;;25.38;40.40
48622;BME280;34421;48.944;9.460;2023-05-23T13:20:30;98539.81;;;25.45;39.78